Lantana, FL

5:00 AM EDT on August 31, 2015 (GMT -0400)
Lantana | | Change Station
CLOSE
Current Station
Personal Weather Station
Location: Lantana, FL
Elevation: 16 ft
Nearby Weather Stations

Elev 16 ft 26.58 °N, 80.06 °W | Updated 5 minutes ago

Partly Cloudy
Partly Cloudy
79.4 °F
Feels Like 83 °F
N
2.0
Wind Variable Wind from ESE
Gusts 4.0 mph

Today
High -- | Low -- °F
--% Chance of Precip.
Yesterday
High -- | Low -- °F
Precip. -- in
6:59 AM 7:41 PM
Waning Gibbous, 96% visible
Pressure 30.01 in
Visibility 10.0 miles
Clouds Few 2200 ft
Scattered Clouds 20000 ft
Heat Index 83 °F
Dew Point 73 °F
Humidity 80%
Rainfall 0.00 in
Snow Depth Not available.
UV 0 out of 12
Pollen .60 out of 12
Air Quality Not available.
Flu Activity Not available.
METAR KPBI 310753Z 14005KT 10SM FEW022 SCT200 26/23 A3001 RMK AO2 SLP161 T02610233
Pressure 30.01 in
Visibility 10.0 miles
Clouds Few 2200 ft
Scattered Clouds 20000 ft
Heat Index 83 °F
Dew Point 73 °F
Humidity 80%
Rainfall 0.00 in
Snow Depth Not available.
UV 0 out of 12
Pollen .60 out of 12
Air Quality Not available.
Flu Activity Not available.
METAR KPBI 310753Z 14005KT 10SM FEW022 SCT200 26/23 A3001 RMK AO2 SLP161 T02610233

10-Day Weather Forecast

×

Almanac

Astronomy

Aug. 31, 2015 Rise Set
Actual Time
Civil Twilight
Nautical Twilight
Astronomical Twilight
Moon
Length of Visible Light
Length of Day
Tomorrow will be .
, % of the Moon is Illuminated

Today's Extremes

State Highs State Lows

Community

WunderPhotos

Upload Photos

1,851,227 photos uploaded!

WunderBlogs® & News

Nearby

Air Quality

  Air Quality AQ Index Pollutant
Not available.

Snow Depth

Station Depth Elevation

Earthquake Activity

City Distance Mag. Time & Date
Minimum magnitude displayed is 2.5.

Coastal Water Temperatures

Place Temperature

Stations

Nearby Weather Stations

Station Location Temp. Windchill Dew Point Humidity Wind Precip. Elev Updated Type